createdAt,value
2019-05-05T00:02:22.115Z,17.37
2019-05-05T00:04:54.306Z,19.40
2019-05-05T00:07:25.367Z,15.25
2019-05-05T00:09:55.131Z,20.88
2019-05-05T00:12:25.326Z,16.85
2019-05-05T00:14:55.394Z,13.58
2019-05-05T00:17:25.446Z,20.08
2019-05-05T00:19:54.973Z,25.82
2019-05-05T00:22:24.569Z,18.23
2019-05-05T00:24:54.587Z,19.48
2019-05-05T00:27:25.299Z,15.30
2019-05-05T00:29:54.697Z,13.55
2019-05-05T00:32:24.465Z,13.70
2019-05-05T00:34:54.992Z,14.58
2019-05-05T00:37:25.475Z,22.02
2019-05-05T00:39:54.337Z,16.67
2019-05-05T00:42:24.719Z,15.78
2019-05-05T00:44:54.949Z,12.68
2019-05-05T00:47:25.155Z,11.95
2019-05-05T00:49:56.154Z,11.85
2019-05-05T00:52:24.589Z,12.55
2019-05-05T00:54:53.116Z,12.47
2019-05-05T00:57:21.524Z,17.87
2019-05-05T00:59:49.962Z,20.50
2019-05-05T01:02:20.012Z,23.52
2019-05-05T01:04:50.054Z,26.42
2019-05-05T01:07:18.655Z,26.80
2019-05-05T01:09:47.061Z,28.70
2019-05-05T01:12:15.862Z,24.95
2019-05-05T01:14:44.845Z,25.45
2019-05-05T01:17:15.034Z,26.57
2019-05-05T01:19:46.741Z,32.08
2019-05-05T01:22:14.394Z,23.25
2019-05-05T01:24:43.000Z,19.37
2019-05-05T01:27:14.747Z,23.65
2019-05-05T01:29:45.072Z,24.82
2019-05-05T01:32:15.280Z,21.57
2019-05-05T01:34:45.454Z,18.70
2019-05-05T01:37:15.534Z,25.60
2019-05-05T01:39:45.575Z,21.05
2019-05-05T01:42:15.762Z,21.65
2019-05-05T01:44:44.773Z,22.42
2019-05-05T01:47:14.746Z,23.02
2019-05-05T01:49:45.305Z,24.23
2019-05-05T01:52:14.948Z,20.23
2019-05-05T01:54:44.643Z,26.82
2019-05-05T01:57:14.765Z,21.25
2019-05-05T01:59:44.734Z,18.35
2019-05-05T02:02:14.598Z,18.70
2019-05-05T02:04:44.693Z,16.57
2019-05-05T02:07:18.854Z,13.00
2019-05-05T02:09:47.263Z,23.05
2019-05-05T02:12:16.038Z,18.95
2019-05-05T02:14:44.631Z,18.05
2019-05-05T02:17:14.386Z,16.30
2019-05-05T02:19:44.337Z,15.00
2019-05-05T02:22:14.683Z,17.90
2019-05-05T02:24:44.444Z,20.12
2019-05-05T02:27:14.546Z,14.95
2019-05-05T02:29:44.890Z,14.28
2019-05-05T02:32:15.798Z,19.75
2019-05-05T02:34:46.157Z,16.60
2019-05-05T02:37:16.276Z,14.03
2019-05-05T02:39:56.630Z,13.80
2019-05-05T02:42:15.669Z,17.00
2019-05-05T02:44:45.733Z,19.12
2019-05-05T02:47:18.901Z,15.75
2019-05-05T02:49:48.209Z,24.37
2019-05-05T02:52:18.938Z,24.15
2019-05-05T02:54:48.891Z,16.23
2019-05-05T02:57:17.447Z,29.37
2019-05-05T02:59:47.941Z,21.52
2019-05-05T03:02:17.977Z,20.52
2019-05-05T03:05:05.915Z,25.35
2019-05-05T03:10:13.965Z,29.85
2019-05-05T03:12:43.921Z,28.98
2019-05-05T03:15:15.492Z,29.00
2019-05-05T03:17:44.559Z,31.20
2019-05-05T03:20:14.533Z,23.02
2019-05-05T03:22:43.530Z,22.48
2019-05-05T03:25:13.586Z,28.45
2019-05-05T03:27:44.436Z,28.92
2019-05-05T03:30:15.241Z,29.20
2019-05-05T03:32:45.645Z,33.15
2019-05-05T03:35:13.586Z,25.68
2019-05-05T03:37:44.495Z,33.80
2019-05-05T03:40:14.775Z,27.42
2019-05-05T03:42:45.222Z,28.00
2019-05-05T03:45:15.506Z,17.87
2019-05-05T03:47:44.136Z,19.80
2019-05-05T03:50:14.446Z,17.35
2019-05-05T03:52:43.848Z,14.30
2019-05-05T03:55:13.760Z,11.65
2019-05-05T03:57:44.529Z,16.37
2019-05-05T04:00:14.947Z,16.02
2019-05-05T04:02:45.070Z,13.72
2019-05-05T04:05:15.139Z,23.77
2019-05-05T04:07:44.120Z,23.42
2019-05-05T04:10:14.059Z,16.97
2019-05-05T04:12:43.557Z,18.67
2019-05-05T04:15:14.043Z,19.25
2019-05-05T04:17:44.398Z,25.30
2019-05-05T04:20:16.283Z,24.90
2019-05-05T04:22:44.714Z,20.05
2019-05-05T04:25:13.926Z,13.72
2019-05-05T04:27:44.386Z,19.50
2019-05-05T04:30:14.238Z,21.02
2019-05-05T04:32:43.948Z,18.05
2019-05-05T04:35:14.032Z,19.35
2019-05-05T04:37:43.723Z,16.42
2019-05-05T04:40:14.626Z,19.67
2019-05-05T04:42:44.078Z,15.88
2019-05-05T04:45:14.793Z,17.02
2019-05-05T04:47:45.014Z,22.15
2019-05-05T04:50:18.032Z,22.20
2019-05-05T04:52:45.647Z,18.15
2019-05-05T04:55:14.110Z,19.35
2019-05-05T04:57:43.685Z,21.68
2019-05-05T05:00:13.714Z,17.82
2019-05-05T05:02:43.967Z,18.07
2019-05-05T05:05:14.585Z,21.12
2019-05-05T05:07:43.910Z,18.15
2019-05-05T05:10:13.834Z,21.40
2019-05-05T05:12:43.586Z,22.22
2019-05-05T05:15:14.573Z,19.40
2019-05-05T05:17:44.982Z,18.82
2019-05-05T05:20:14.211Z,19.45
2019-05-05T05:22:44.003Z,17.52
2019-05-05T05:25:13.606Z,25.60
2019-05-05T05:27:44.212Z,14.13
2019-05-05T05:30:13.785Z,17.87
2019-05-05T05:32:44.358Z,17.85
2019-05-05T05:35:15.334Z,15.93
2019-05-05T05:37:44.829Z,16.23
2019-05-05T05:40:15.427Z,14.23
2019-05-05T05:42:44.049Z,12.88
2019-05-05T05:45:14.639Z,12.75
2019-05-05T05:47:44.843Z,13.80
2019-05-05T05:50:14.878Z,18.35
2019-05-05T05:52:43.670Z,11.70
2019-05-05T05:55:14.427Z,14.28
2019-05-05T05:57:43.917Z,11.85
2019-05-05T06:00:14.447Z,13.70
2019-05-05T06:02:43.946Z,12.07
2019-05-05T06:05:14.595Z,13.13
2019-05-05T06:07:44.265Z,14.13
2019-05-05T06:10:22.268Z,13.38
2019-05-05T06:12:44.895Z,12.90
2019-05-05T06:15:14.243Z,12.18
2019-05-05T06:17:43.520Z,12.05
2019-05-05T06:20:12.143Z,13.62
2019-05-05T06:22:40.577Z,13.53
2019-05-05T06:25:09.454Z,14.70
2019-05-05T06:27:37.857Z,16.52
2019-05-05T06:30:07.699Z,17.75
2019-05-05T06:32:36.101Z,21.33
2019-05-05T06:35:04.948Z,20.00
2019-05-05T06:37:34.271Z,22.80
2019-05-05T06:40:04.906Z,14.25
2019-05-05T06:42:35.091Z,15.95
2019-05-05T06:45:06.587Z,16.37
2019-05-05T06:47:36.692Z,12.90
2019-05-05T06:50:06.934Z,13.50
2019-05-05T06:52:43.829Z,10.90
2019-05-05T06:55:06.454Z,16.02
2019-05-05T06:57:34.870Z,14.75
2019-05-05T07:00:03.974Z,12.58
2019-05-05T07:02:34.189Z,12.68
2019-05-05T07:05:04.076Z,14.75
2019-05-05T07:07:34.264Z,14.85
2019-05-05T07:10:03.779Z,15.23
2019-05-05T07:12:34.564Z,14.45
2019-05-05T07:15:04.218Z,13.35
2019-05-05T07:17:33.809Z,12.80
2019-05-05T07:20:04.332Z,11.53
2019-05-05T07:22:34.656Z,14.75
2019-05-05T07:25:04.692Z,11.85
2019-05-05T07:27:33.868Z,12.03
2019-05-05T07:30:04.587Z,15.13
2019-05-05T07:32:33.792Z,16.67
2019-05-05T07:35:04.349Z,13.03
2019-05-05T07:37:34.404Z,14.95
2019-05-05T07:40:04.261Z,11.35
2019-05-05T07:42:33.553Z,13.78
2019-05-05T07:45:04.066Z,9.30
2019-05-05T07:47:34.151Z,15.38
2019-05-05T07:50:04.106Z,14.58
2019-05-05T07:52:34.367Z,13.80
2019-05-05T07:55:03.743Z,15.60
2019-05-05T07:57:34.108Z,17.20
2019-05-05T08:00:02.363Z,12.85
2019-05-05T08:02:30.783Z,14.10
2019-05-05T08:04:59.179Z,14.75
2019-05-05T08:07:27.600Z,16.10
2019-05-05T08:09:56.026Z,15.85
2019-05-05T08:12:25.015Z,15.65
2019-05-05T08:14:53.758Z,14.47
2019-05-05T08:17:23.884Z,15.13
2019-05-05T08:19:54.389Z,19.27
2019-05-05T08:22:23.534Z,21.97
2019-05-05T08:24:54.499Z,21.95
2019-05-05T08:27:25.057Z,16.82
2019-05-05T08:29:55.162Z,15.23
2019-05-05T08:32:25.226Z,19.82
2019-05-05T08:34:59.775Z,13.78
2019-05-05T08:37:23.773Z,17.52
2019-05-05T08:39:54.019Z,16.27
2019-05-05T08:42:24.444Z,18.62
2019-05-05T08:44:53.820Z,15.20
2019-05-05T08:47:24.441Z,20.60
2019-05-05T08:49:53.765Z,14.53
2019-05-05T08:52:23.850Z,12.85
2019-05-05T08:54:55.423Z,14.18
2019-05-05T08:57:23.822Z,16.05
2019-05-05T08:59:54.323Z,13.98
2019-05-05T09:02:23.920Z,15.48
2019-05-05T09:04:53.761Z,18.17
2019-05-05T09:07:24.151Z,18.00
2019-05-05T09:09:54.496Z,17.30
2019-05-05T09:12:23.601Z,14.55
2019-05-05T09:14:53.852Z,15.13
2019-05-05T09:17:24.163Z,20.62
2019-05-05T09:19:53.699Z,15.90
2019-05-05T09:22:24.441Z,16.27
2019-05-05T09:24:54.053Z,14.23
2019-05-05T09:27:24.893Z,12.47
2019-05-05T09:29:54.408Z,12.70
2019-05-05T09:32:24.318Z,12.07
2019-05-05T09:34:54.043Z,13.10
2019-05-05T09:37:24.571Z,17.17
2019-05-05T09:42:21.202Z,17.30
2019-05-05T09:44:49.609Z,13.65
2019-05-05T09:47:20.682Z,16.80
2019-05-05T09:49:49.099Z,15.58
2019-05-05T09:52:17.506Z,14.63
2019-05-05T09:54:45.914Z,13.13
2019-05-05T09:57:20.091Z,15.98
2019-05-05T09:59:48.483Z,11.03
2019-05-05T10:02:16.970Z,13.53
2019-05-05T10:04:45.398Z,13.70
2019-05-05T10:07:13.962Z,14.80
2019-05-05T10:09:43.820Z,14.47
2019-05-05T10:12:33.716Z,15.78
2019-05-05T10:15:01.974Z,14.98
2019-05-05T10:17:30.492Z,12.82
2019-05-05T10:19:58.967Z,10.25
2019-05-05T10:22:27.394Z,8.08
2019-05-05T10:24:57.773Z,9.45
2019-05-05T10:27:26.293Z,5.85
2019-05-05T10:29:54.878Z,12.33
2019-05-05T10:32:24.470Z,9.48
2019-05-05T10:34:54.903Z,9.85
2019-05-05T10:37:23.583Z,8.45
2019-05-05T10:39:54.375Z,13.08
2019-05-05T10:42:24.618Z,8.65
2019-05-05T10:44:55.970Z,10.48
2019-05-05T10:47:24.367Z,9.95
2019-05-05T10:49:54.467Z,15.08
2019-05-05T10:52:22.955Z,6.72
2019-05-05T10:54:51.363Z,9.98
2019-05-05T10:57:19.772Z,8.80
2019-05-05T10:59:48.166Z,6.92
2019-05-05T11:02:18.134Z,12.13
2019-05-05T11:04:46.531Z,12.65
2019-05-05T11:07:18.529Z,6.03
2019-05-05T11:09:46.715Z,8.95
2019-05-05T11:12:15.131Z,7.65
2019-05-05T11:14:44.262Z,7.70
2019-05-05T11:17:14.395Z,13.18
2019-05-05T11:19:44.091Z,11.15
2019-05-05T11:22:14.713Z,9.48
2019-05-05T11:24:56.779Z,15.18
2019-05-05T11:27:13.656Z,11.70
2019-05-05T11:29:43.735Z,9.95
2019-05-05T11:32:15.278Z,9.93
2019-05-05T11:34:44.253Z,8.15
2019-05-05T11:37:15.530Z,9.15
2019-05-05T11:39:44.551Z,12.25
2019-05-05T11:42:14.631Z,14.05
2019-05-05T11:44:43.212Z,10.80
2019-05-05T11:47:20.026Z,12.90
2019-05-05T11:49:48.454Z,12.98
2019-05-05T11:52:16.875Z,9.70
2019-05-05T11:54:45.295Z,11.10
2019-05-05T11:57:14.627Z,5.60
2019-05-05T11:59:43.082Z,8.60
2019-05-05T12:02:13.475Z,7.28
2019-05-05T12:04:41.757Z,11.60
2019-05-05T12:07:11.480Z,8.10
2019-05-05T12:09:41.526Z,12.50
2019-05-05T12:12:09.922Z,13.58
2019-05-05T12:14:38.627Z,18.45
2019-05-05T12:17:07.022Z,12.78
2019-05-05T12:19:35.451Z,14.30
2019-05-05T12:22:03.875Z,20.77
2019-05-05T12:24:34.033Z,17.80
2019-05-05T12:27:04.154Z,11.43
2019-05-05T12:29:34.419Z,17.02
2019-05-05T12:32:02.850Z,13.93
2019-05-05T12:34:31.258Z,15.78
2019-05-05T12:36:59.666Z,17.40
2019-05-05T12:39:28.072Z,23.12
2019-05-05T12:41:56.481Z,17.82
2019-05-05T12:44:26.545Z,17.50
2019-05-05T12:46:56.677Z,17.35
2019-05-05T12:49:25.463Z,15.83
2019-05-05T12:51:54.171Z,11.85
2019-05-05T12:54:24.492Z,13.83
2019-05-05T12:56:53.893Z,13.70
2019-05-05T12:59:24.886Z,16.12
2019-05-05T13:01:54.668Z,13.28
2019-05-05T13:04:24.578Z,9.95
2019-05-05T13:06:54.058Z,10.45
2019-05-05T13:09:24.396Z,11.95
2019-05-05T13:11:54.189Z,10.48
2019-05-05T13:14:22.859Z,9.95
2019-05-05T13:16:55.324Z,9.73
2019-05-05T13:19:24.225Z,11.95
2019-05-05T13:21:54.508Z,6.80
2019-05-05T13:24:24.582Z,10.82
2019-05-05T13:26:54.697Z,12.65
2019-05-05T13:29:24.613Z,7.62
2019-05-05T13:31:54.412Z,10.58
2019-05-05T13:34:23.043Z,7.42
2019-05-05T13:36:51.458Z,10.93
2019-05-05T13:39:19.967Z,9.23
2019-05-05T13:41:48.370Z,10.68
2019-05-05T13:44:18.421Z,9.60
2019-05-05T13:46:46.846Z,14.60
2019-05-05T13:49:16.902Z,11.95
2019-05-05T13:51:45.478Z,6.12
2019-05-05T13:54:13.891Z,9.70
2019-05-05T13:56:44.034Z,8.35
2019-05-05T13:59:14.165Z,13.43
2019-05-05T14:01:44.603Z,10.20
2019-05-05T14:04:12.690Z,13.13
2019-05-05T14:06:41.085Z,8.43
2019-05-05T14:09:09.679Z,13.15
2019-05-05T14:11:38.103Z,17.60
2019-05-05T14:14:06.590Z,9.13
2019-05-05T14:16:34.992Z,15.08
2019-05-05T14:19:04.423Z,10.63
2019-05-05T14:21:33.936Z,12.00
2019-05-05T14:24:04.303Z,14.38
2019-05-05T14:26:35.156Z,6.25
2019-05-05T14:29:04.366Z,10.10
2019-05-05T14:31:34.598Z,6.85
2019-05-05T14:34:04.649Z,13.70
2019-05-05T14:36:34.683Z,11.75
2019-05-05T14:39:04.748Z,10.98
2019-05-05T14:41:35.141Z,17.75
2019-05-05T14:44:04.434Z,11.50
2019-05-05T14:46:34.037Z,8.90
2019-05-05T14:49:02.597Z,10.80
2019-05-05T14:51:31.030Z,12.98
2019-05-05T14:53:59.434Z,14.18
2019-05-05T14:56:36.101Z,12.15
2019-05-05T14:58:58.007Z,9.43
2019-05-05T15:01:26.398Z,11.03
2019-05-05T15:03:54.832Z,11.30
2019-05-05T15:06:25.056Z,12.75
2019-05-05T15:08:55.122Z,9.08
2019-05-05T15:11:25.190Z,16.17
2019-05-05T15:13:54.074Z,13.45
2019-05-05T15:16:24.333Z,15.93
2019-05-05T15:18:52.741Z,15.72
2019-05-05T15:21:21.222Z,13.83
2019-05-05T15:23:49.646Z,13.78
2019-05-05T15:26:18.088Z,11.63
2019-05-05T15:28:58.593Z,10.68
2019-05-05T15:31:17.881Z,11.38
2019-05-05T15:33:46.548Z,9.48
2019-05-05T15:36:14.943Z,7.45
2019-05-05T15:38:43.812Z,14.35
2019-05-05T15:41:14.383Z,12.98
2019-05-05T15:43:44.119Z,12.58
2019-05-05T15:46:12.623Z,14.38
2019-05-05T15:48:41.059Z,10.55
2019-05-05T15:51:09.492Z,12.00
2019-05-05T15:53:37.886Z,9.33
2019-05-05T15:56:06.478Z,8.00
2019-05-05T15:58:34.908Z,10.15
2019-05-05T16:01:03.828Z,8.83
2019-05-05T16:03:32.373Z,9.20
2019-05-05T16:06:00.788Z,11.28
2019-05-05T16:08:29.192Z,9.65
2019-05-05T16:10:57.634Z,13.50
2019-05-05T16:13:26.106Z,9.78
2019-05-05T16:15:56.183Z,7.85
2019-05-05T16:18:26.238Z,12.85
2019-05-05T16:20:56.302Z,12.90
2019-05-05T16:23:26.362Z,6.25
2019-05-05T16:25:54.794Z,13.38
2019-05-05T16:28:25.008Z,11.80
2019-05-05T16:30:53.433Z,13.85
2019-05-05T16:33:24.157Z,13.18
2019-05-05T16:35:52.691Z,16.60
2019-05-05T16:38:21.086Z,13.40
2019-05-05T16:40:49.582Z,13.88
2019-05-05T16:43:18.007Z,11.73
2019-05-05T16:45:46.438Z,10.63
2019-05-05T16:48:14.858Z,17.02
2019-05-05T16:50:44.314Z,10.68
2019-05-05T16:53:14.664Z,14.78
2019-05-05T16:55:44.977Z,12.20
2019-05-05T16:58:13.901Z,11.65
2019-05-05T17:00:44.146Z,11.68
2019-05-05T17:03:13.471Z,14.93
2019-05-05T17:05:44.083Z,9.63
2019-05-05T17:08:13.930Z,11.63
2019-05-05T17:10:43.569Z,12.50
2019-05-05T17:13:15.359Z,14.35
2019-05-05T17:15:45.940Z,11.60
2019-05-05T17:18:16.047Z,14.65
2019-05-05T17:20:46.098Z,14.58
2019-05-05T17:23:15.584Z,12.40
2019-05-05T17:25:44.334Z,10.98
2019-05-05T17:28:13.630Z,11.95
2019-05-05T17:30:43.650Z,12.65
2019-05-05T17:33:12.229Z,13.48
2019-05-05T17:35:40.732Z,12.70
2019-05-05T17:38:10.771Z,16.82
2019-05-05T17:40:40.933Z,14.00
2019-05-05T17:43:22.579Z,11.73
2019-05-05T17:45:44.038Z,12.85
2019-05-05T17:51:09.335Z,12.90
2019-05-05T17:53:39.397Z,14.43
2019-05-05T17:56:09.466Z,11.63
2019-05-05T17:58:37.967Z,11.55
2019-05-05T18:01:06.370Z,5.78
2019-05-05T18:03:34.784Z,10.68
2019-05-05T18:06:05.858Z,10.60
2019-05-05T18:08:36.157Z,13.88
2019-05-05T18:11:06.759Z,13.35
2019-05-05T18:13:36.814Z,12.28
2019-05-05T18:16:05.586Z,14.70
2019-05-05T18:18:34.083Z,10.55
2019-05-05T18:21:02.521Z,12.05
2019-05-05T18:23:30.950Z,11.80
2019-05-05T18:25:59.502Z,14.35
2019-05-05T18:28:27.926Z,15.50
2019-05-05T18:30:56.341Z,10.98
2019-05-05T18:33:24.774Z,14.53
2019-05-05T18:35:54.096Z,13.55
2019-05-05T18:38:23.589Z,10.90
2019-05-05T18:40:53.639Z,11.70
2019-05-05T18:43:24.248Z,13.88
2019-05-05T18:45:54.417Z,10.48
2019-05-05T18:48:23.481Z,11.35
2019-05-05T18:50:53.864Z,12.13
2019-05-05T18:53:22.114Z,16.07
2019-05-05T18:55:50.534Z,12.35
2019-05-05T18:58:27.394Z,14.83
2019-05-05T19:00:50.732Z,8.63
2019-05-05T19:03:20.897Z,12.53
2019-05-05T19:05:51.044Z,9.43
2019-05-05T19:08:21.107Z,11.95
2019-05-05T19:10:49.514Z,8.25
2019-05-05T19:13:17.939Z,10.85
2019-05-05T19:15:46.332Z,11.12
2019-05-05T19:18:14.826Z,9.15
2019-05-05T19:20:44.867Z,12.82
2019-05-05T19:23:14.758Z,15.03
2019-05-05T19:25:44.904Z,12.60
2019-05-05T19:28:14.238Z,14.60
2019-05-05T19:30:44.055Z,10.98
2019-05-05T19:33:13.396Z,14.75
2019-05-05T19:35:45.262Z,14.03
2019-05-05T19:38:15.592Z,13.70
2019-05-05T19:40:43.189Z,10.18
2019-05-05T19:43:13.847Z,10.03
2019-05-05T19:45:41.803Z,12.70
2019-05-05T19:48:10.190Z,9.63
2019-05-05T19:50:40.240Z,10.28
2019-05-05T19:53:10.299Z,10.15
2019-05-05T19:55:38.725Z,12.55
2019-05-05T19:58:07.133Z,17.48
2019-05-05T20:00:38.444Z,18.87
2019-05-05T20:03:05.655Z,9.45
2019-05-05T20:05:34.221Z,11.73
2019-05-05T20:08:04.033Z,16.55
2019-05-05T20:10:32.767Z,13.62
2019-05-05T20:13:01.192Z,14.07
2019-05-05T20:15:31.294Z,17.90
2019-05-05T20:17:59.697Z,13.08
2019-05-05T20:20:28.119Z,14.70
2019-05-05T20:22:56.544Z,12.55
2019-05-05T20:25:24.928Z,14.70
2019-05-05T20:27:55.783Z,12.30
2019-05-05T20:30:24.707Z,13.30
2019-05-05T20:32:56.329Z,11.28
2019-05-05T20:35:26.538Z,12.85
2019-05-05T20:37:56.599Z,14.70
2019-05-05T20:40:26.647Z,12.45
2019-05-05T20:42:55.066Z,11.90
2019-05-05T20:45:25.130Z,13.65
2019-05-05T20:47:53.754Z,14.95
2019-05-05T20:50:22.243Z,15.80
2019-05-05T20:52:50.674Z,11.15
2019-05-05T20:55:19.154Z,13.00
2019-05-05T20:57:47.646Z,10.45
2019-05-05T21:00:17.404Z,10.72
2019-05-05T21:02:45.819Z,10.82
2019-05-05T21:05:14.652Z,13.22
2019-05-05T21:07:44.388Z,12.50
2019-05-05T21:10:14.363Z,11.28
2019-05-05T21:12:45.484Z,8.50
2019-05-05T21:15:13.550Z,13.72
2019-05-05T21:17:41.982Z,11.38
2019-05-05T21:20:10.840Z,9.00
2019-05-05T21:22:40.870Z,12.95
2019-05-05T21:25:11.077Z,13.32
2019-05-05T21:27:39.496Z,10.45
2019-05-05T21:30:07.989Z,11.80
2019-05-05T21:32:36.378Z,9.78
2019-05-05T21:35:05.535Z,12.30
2019-05-05T21:37:34.097Z,11.65
2019-05-05T21:40:04.537Z,12.10
2019-05-05T21:42:34.865Z,12.93
2019-05-05T21:45:04.607Z,12.82
2019-05-05T21:47:34.534Z,14.68
2019-05-05T21:50:05.643Z,9.60
2019-05-05T21:52:35.702Z,8.95
2019-05-05T21:55:13.919Z,12.18
2019-05-05T21:57:44.131Z,10.78
2019-05-05T22:00:15.458Z,8.10
2019-05-05T22:02:44.620Z,11.73
2019-05-05T22:05:14.617Z,10.78
2019-05-05T22:07:43.038Z,9.48
2019-05-05T22:10:13.491Z,8.30
2019-05-05T22:12:41.658Z,11.57
2019-05-05T22:15:10.226Z,9.68
2019-05-05T22:17:38.624Z,8.03
2019-05-05T22:20:08.747Z,8.78
2019-05-05T22:22:38.802Z,8.18
2019-05-05T22:25:07.431Z,10.05
2019-05-05T22:27:35.850Z,9.60
2019-05-05T22:30:10.121Z,10.82
2019-05-05T22:32:36.722Z,14.43
2019-05-05T22:35:07.458Z,12.68
2019-05-05T22:37:35.858Z,13.03
2019-05-05T22:40:04.793Z,7.72
2019-05-05T22:42:34.217Z,6.83
2019-05-05T22:45:04.456Z,19.82
2019-05-05T22:47:34.559Z,14.23
2019-05-05T22:50:04.455Z,9.83
2019-05-05T22:52:34.388Z,13.58
2019-05-05T22:55:04.566Z,14.60
2019-05-05T22:57:34.503Z,17.07
2019-05-05T23:00:05.163Z,16.42
2019-05-05T23:02:35.225Z,10.48
2019-05-05T23:05:06.606Z,13.05
2019-05-05T23:07:35.141Z,11.22
2019-05-05T23:10:05.205Z,9.48
2019-05-05T23:12:35.047Z,10.65
2019-05-05T23:15:06.004Z,10.15
2019-05-05T23:17:36.345Z,14.33
2019-05-05T23:20:08.737Z,11.60
2019-05-05T23:22:38.780Z,14.65
2019-05-05T23:25:08.892Z,16.60
2019-05-05T23:27:38.946Z,18.17
2019-05-05T23:30:08.077Z,11.48
2019-05-05T23:32:36.490Z,8.13
2019-05-05T23:35:05.129Z,12.45
2019-05-05T23:37:34.321Z,15.20
2019-05-05T23:40:03.858Z,9.65
2019-05-05T23:42:33.672Z,16.42
2019-05-05T23:45:04.269Z,17.95
2019-05-05T23:47:34.358Z,10.15
2019-05-05T23:50:04.393Z,12.43
2019-05-05T23:52:34.844Z,14.47
2019-05-05T23:55:04.028Z,16.00
2019-05-05T23:57:32.627Z,11.88
